createdAt,value
2023-02-12T00:00:11.999Z,99292.84
2023-02-12T00:02:13.368Z,99280.03
2023-02-12T00:04:14.704Z,99287.72
2023-02-12T00:06:16.269Z,99287.75
2023-02-12T00:08:17.617Z,99297.94
2023-02-12T00:10:18.917Z,99301.41
2023-02-12T00:12:20.222Z,99304.81
2023-02-12T00:14:21.530Z,99301.44
2023-02-12T00:16:22.821Z,99302.28
2023-02-12T00:18:24.126Z,99301.50
2023-02-12T00:20:25.440Z,99309.13
2023-02-12T00:22:27.993Z,99308.25
2023-02-12T00:24:29.335Z,99304.00
2023-02-12T00:26:30.671Z,99299.75
2023-02-12T00:28:32.044Z,99298.88
2023-02-12T00:30:33.459Z,99302.28
2023-02-12T00:32:34.784Z,99311.66
2023-02-12T00:34:36.079Z,99309.09
2023-02-12T00:36:37.378Z,99320.25
2023-02-12T00:38:38.682Z,99314.25
2023-02-12T00:40:39.987Z,99321.91
2023-02-12T00:42:41.337Z,99322.72
2023-02-12T00:44:42.652Z,99329.56
2023-02-12T00:46:43.992Z,99321.91
2023-02-12T00:48:45.403Z,99321.06
2023-02-12T00:50:46.782Z,99315.09
2023-02-12T00:52:48.084Z,99321.06
2023-02-12T00:54:49.377Z,99315.91
2023-02-12T00:56:50.710Z,99321.94
2023-02-12T00:58:52.052Z,99324.47
2023-02-12T01:00:53.398Z,99329.59
2023-02-12T01:02:54.999Z,99323.59
2023-02-12T01:04:56.405Z,99332.13
2023-02-12T01:06:57.729Z,99330.31
2023-02-12T01:08:59.086Z,99336.09
2023-02-12T01:11:00.403Z,99341.34
2023-02-12T01:13:01.707Z,99343.03
2023-02-12T01:15:02.999Z,99348.97
2023-02-12T01:17:04.294Z,99339.63
2023-02-12T01:19:05.620Z,99337.09
2023-02-12T01:21:06.944Z,99349.06
2023-02-12T01:23:08.632Z,99341.50
2023-02-12T01:25:09.937Z,99345.00
2023-02-12T01:27:11.227Z,99343.31
2023-02-12T01:29:12.642Z,99347.59
2023-02-12T01:31:14.085Z,99345.03
2023-02-12T01:33:15.443Z,99344.16
2023-02-12T01:35:16.771Z,99345.91
2023-02-12T01:37:18.104Z,99344.22
2023-02-12T01:39:19.416Z,99337.44
2023-02-12T01:41:20.708Z,99343.38
2023-02-12T01:43:22.041Z,99346.84
2023-02-12T01:45:23.373Z,99353.66
2023-02-12T01:47:24.709Z,99349.41
2023-02-12T01:49:26.122Z,99357.97
2023-02-12T01:51:27.465Z,99358.00
2023-02-12T01:53:28.764Z,99359.69
2023-02-12T01:55:30.536Z,99348.56
2023-02-12T01:57:31.844Z,99351.56
2023-02-12T01:59:33.183Z,99355.31
2023-02-12T02:01:34.572Z,99352.59
2023-02-12T02:03:36.010Z,99363.75
2023-02-12T02:05:37.385Z,99356.31
2023-02-12T02:07:38.704Z,99360.78
2023-02-12T02:09:40.038Z,99354.94
2023-02-12T02:12:00.118Z,99345.56
2023-02-12T02:14:20.095Z,99351.53
2023-02-12T02:16:21.478Z,99354.06
2023-02-12T02:18:22.787Z,99349.78
2023-02-12T02:20:24.081Z,99364.25
2023-02-12T02:22:25.451Z,99342.91
2023-02-12T02:24:26.779Z,99354.00
2023-02-12T02:26:28.589Z,99359.94
2023-02-12T02:28:29.982Z,99355.63
2023-02-12T02:30:31.358Z,99358.19
2023-02-12T02:32:32.716Z,99353.09
2023-02-12T02:34:34.048Z,99356.47
2023-02-12T02:36:35.354Z,99358.19
2023-02-12T02:38:36.659Z,99358.19
2023-02-12T02:40:37.984Z,99355.63
2023-02-12T02:42:39.317Z,99362.44
2023-02-12T02:44:40.616Z,99357.31
2023-02-12T02:46:41.995Z,99362.44
2023-02-12T02:48:43.373Z,99359.91
2023-02-12T02:50:44.707Z,99366.72
2023-02-12T02:52:46.011Z,99371.84
2023-02-12T02:54:47.366Z,99371.03
2023-02-12T02:56:48.706Z,99372.75
2023-02-12T02:58:49.999Z,99370.19
2023-02-12T03:00:51.343Z,99369.34
2023-02-12T03:02:52.838Z,99373.63
2023-02-12T03:04:54.162Z,99370.19
2023-02-12T03:06:55.448Z,99375.34
2023-02-12T03:08:56.771Z,99381.31
2023-02-12T03:10:58.073Z,99387.25
2023-02-12T03:12:59.376Z,99383.84
2023-02-12T03:15:00.788Z,99391.53
2023-02-12T03:17:02.080Z,99389.84
2023-02-12T03:19:03.475Z,99399.22
2023-02-12T03:21:05.687Z,99394.09
2023-02-12T03:23:07.024Z,99395.78
2023-02-12T03:25:09.763Z,99397.47
2023-02-12T03:27:12.378Z,99408.53
2023-02-12T03:29:13.771Z,99414.50
2023-02-12T03:31:15.093Z,99413.69
2023-02-12T03:33:16.485Z,99411.94
2023-02-12T03:35:17.856Z,99407.72
2023-02-12T03:37:19.214Z,99415.38
2023-02-12T03:39:20.545Z,99423.03
2023-02-12T03:41:21.854Z,99417.94
2023-02-12T03:43:23.212Z,99420.47
2023-02-12T03:45:24.540Z,99416.22
2023-02-12T03:47:25.871Z,99417.06
2023-02-12T03:49:27.211Z,99427.31
2023-02-12T03:51:28.546Z,99432.41
2023-02-12T03:53:29.903Z,99433.28
2023-02-12T03:55:31.279Z,99439.22
2023-02-12T03:57:34.176Z,99429.88
2023-02-12T03:59:35.467Z,99435.81
2023-02-12T04:01:37.069Z,99429.84
2023-02-12T04:03:38.439Z,99434.97
2023-02-12T04:05:39.822Z,99433.28
2023-02-12T04:07:41.114Z,99436.66
2023-02-12T04:09:42.472Z,99440.94
2023-02-12T04:11:43.812Z,99443.47
2023-02-12T04:13:45.121Z,99443.47
2023-02-12T04:15:46.724Z,99452.84
2023-02-12T04:17:48.160Z,99450.31
2023-02-12T04:19:49.711Z,99451.16
2023-02-12T04:21:51.115Z,99458.81
2023-02-12T04:23:52.443Z,99460.53
2023-02-12T04:25:54.310Z,99460.53
2023-02-12T04:27:55.902Z,99462.22
2023-02-12T04:29:57.239Z,99468.22
2023-02-12T04:31:58.603Z,99463.09
2023-02-12T04:33:59.938Z,99467.38
2023-02-12T04:36:02.213Z,99474.19
2023-02-12T04:38:03.551Z,99474.19
2023-02-12T04:40:04.872Z,99467.34
2023-02-12T04:42:06.218Z,99469.91
2023-02-12T04:44:07.524Z,99467.38
2023-02-12T04:46:08.867Z,99466.53
2023-02-12T04:48:10.677Z,99473.31
2023-02-12T04:50:12.018Z,99469.06
2023-02-12T04:52:13.327Z,99475.03
2023-02-12T04:54:14.690Z,99478.44
2023-02-12T04:56:16.112Z,99475.88
2023-02-12T04:58:17.484Z,99480.16
2023-02-12T05:00:18.866Z,99490.38
2023-02-12T05:02:20.179Z,99485.25
2023-02-12T05:04:21.490Z,99485.25
2023-02-12T05:06:22.857Z,99481.84
2023-02-12T05:08:24.161Z,99488.66
2023-02-12T05:10:25.498Z,99482.69
2023-02-12T05:12:26.806Z,99482.69
2023-02-12T05:14:28.139Z,99486.94
2023-02-12T05:16:29.566Z,99480.13
2023-02-12T05:18:30.868Z,99485.25
2023-02-12T05:20:32.209Z,99483.53
2023-02-12T05:22:33.625Z,99486.06
2023-02-12T05:24:34.924Z,99489.50
2023-02-12T05:26:36.307Z,99497.16
2023-02-12T05:28:37.704Z,99487.81
2023-02-12T05:30:39.116Z,99498.88
2023-02-12T05:32:40.440Z,99504.84
2023-02-12T05:34:41.768Z,99499.72
2023-02-12T05:36:43.147Z,99509.09
2023-02-12T05:38:44.446Z,99503.16
2023-02-12T05:40:45.843Z,99502.28
2023-02-12T05:42:47.163Z,99503.97
2023-02-12T05:44:48.500Z,99508.25
2023-02-12T05:46:49.918Z,99514.22
2023-02-12T05:48:51.232Z,99516.78
2023-02-12T05:50:53.308Z,99515.91
2023-02-12T05:52:54.662Z,99515.06
2023-02-12T05:54:55.960Z,99515.06
2023-02-12T05:56:57.355Z,99519.34
2023-02-12T05:58:58.888Z,99530.41
2023-02-12T06:01:00.210Z,99532.09
2023-02-12T06:03:02.371Z,99526.13
2023-02-12T06:05:03.716Z,99523.59
2023-02-12T06:07:05.039Z,99533.78
2023-02-12T06:09:06.421Z,99527.84
2023-02-12T06:11:07.788Z,99532.09
2023-02-12T06:13:09.079Z,99542.31
2023-02-12T06:15:10.711Z,99537.22
2023-02-12T06:17:12.072Z,99543.16
2023-02-12T06:19:13.401Z,99550.84
2023-02-12T06:21:14.741Z,99550.84
2023-02-12T06:23:16.082Z,99556.81
2023-02-12T06:25:17.424Z,99564.47
2023-02-12T06:27:18.784Z,99564.50
2023-02-12T06:29:20.134Z,99571.31
2023-02-12T06:31:21.598Z,99573.84
2023-02-12T06:33:22.977Z,99573.84
2023-02-12T06:35:24.281Z,99578.97
2023-02-12T06:37:25.907Z,99580.69
2023-02-12T06:39:27.244Z,99583.22
2023-02-12T06:41:28.540Z,99579.00
2023-02-12T06:43:29.881Z,99585.78
2023-02-12T06:45:31.197Z,99589.22
2023-02-12T06:47:32.514Z,99588.38
2023-02-12T06:49:33.820Z,99596.03
2023-02-12T06:51:36.418Z,99583.25
2023-02-12T06:53:37.843Z,99592.63
2023-02-12T06:55:39.157Z,99597.72
2023-02-12T06:57:40.491Z,99603.69
2023-02-12T06:59:41.823Z,99608.78
2023-02-12T07:01:43.226Z,99610.50
2023-02-12T07:03:44.535Z,99614.72
2023-02-12T07:05:46.267Z,99607.91
2023-02-12T07:07:47.574Z,99616.44
2023-02-12T07:09:48.916Z,99615.59
2023-02-12T07:11:50.296Z,99623.19
2023-02-12T07:13:51.594Z,99621.47
2023-02-12T07:15:56.316Z,99616.34
2023-02-12T07:17:57.819Z,99621.47
2023-02-12T07:19:59.161Z,99623.19
2023-02-12T07:22:00.503Z,99622.34
2023-02-12T07:24:02.189Z,99630.06
2023-02-12T07:26:03.521Z,99632.56
2023-02-12T07:28:04.846Z,99629.97
2023-02-12T07:30:06.298Z,99631.66
2023-02-12T07:32:07.718Z,99633.38
2023-02-12T07:34:09.377Z,99636.78
2023-02-12T07:36:10.744Z,99627.41
2023-02-12T07:38:15.119Z,99635.09
2023-02-12T07:40:16.452Z,99640.22
2023-02-12T07:42:17.980Z,99637.66
2023-02-12T07:44:19.323Z,99646.19
2023-02-12T07:46:20.748Z,99647.94
2023-02-12T07:48:22.185Z,99647.94
2023-02-12T07:50:23.476Z,99651.38
2023-02-12T07:52:24.775Z,99648.00
2023-02-12T07:54:26.069Z,99646.25
2023-02-12T07:56:32.513Z,99642.88
2023-02-12T07:58:33.864Z,99648.00
2023-02-12T08:00:35.163Z,99647.97
2023-02-12T08:02:36.516Z,99649.72
2023-02-12T08:04:37.869Z,99654.84
2023-02-12T08:06:42.277Z,99655.72
2023-02-12T08:08:43.631Z,99649.75
2023-02-12T08:10:44.936Z,99658.25
2023-02-12T08:12:46.253Z,99668.50
2023-02-12T08:14:47.575Z,99660.81
2023-02-12T08:16:48.967Z,99669.28
2023-02-12T08:18:53.056Z,99660.75
2023-02-12T08:20:54.383Z,99667.56
2023-02-12T08:22:55.680Z,99670.09
2023-02-12T08:24:57.001Z,99676.91
2023-02-12T08:26:58.431Z,99675.16
2023-02-12T08:28:59.882Z,99681.09
2023-02-12T08:31:02.252Z,99681.94
2023-02-12T08:33:03.564Z,99667.44
2023-02-12T08:35:04.855Z,99672.50
2023-02-12T08:37:06.170Z,99674.22
2023-02-12T08:39:07.466Z,99678.44
2023-02-12T08:41:08.869Z,99682.72
2023-02-12T08:43:10.208Z,99681.84
2023-02-12T08:45:11.558Z,99692.06
2023-02-12T08:47:12.847Z,99687.78
2023-02-12T08:49:14.255Z,99696.31
2023-02-12T08:51:15.671Z,99698.84
2023-02-12T08:53:16.961Z,99690.31
2023-02-12T08:55:18.263Z,99697.16
2023-02-12T08:57:19.573Z,99704.84
2023-02-12T08:59:20.865Z,99704.00
2023-02-12T09:01:22.406Z,99714.22
2023-02-12T09:03:23.782Z,99704.88
2023-02-12T09:05:25.115Z,99700.66
2023-02-12T09:07:26.409Z,99707.47
2023-02-12T09:09:27.733Z,99707.50
2023-02-12T09:11:32.144Z,99707.56
2023-02-12T09:13:33.462Z,99705.84
2023-02-12T09:15:34.764Z,99705.03
2023-02-12T09:17:36.063Z,99703.34
2023-02-12T09:19:37.356Z,99703.34
2023-02-12T09:21:41.718Z,99705.91
2023-02-12T09:23:43.024Z,99710.16
2023-02-12T09:25:44.336Z,99707.63
2023-02-12T09:27:45.633Z,99708.47
2023-02-12T09:29:46.948Z,99717.84
2023-02-12T09:31:48.425Z,99719.53
2023-02-12T09:33:53.303Z,99720.41
2023-02-12T09:35:56.284Z,99714.41
2023-02-12T09:37:57.788Z,99719.56
2023-02-12T09:39:59.100Z,99718.66
2023-02-12T09:42:00.457Z,99723.78
2023-02-12T09:44:01.752Z,99714.38
2023-02-12T09:46:03.094Z,99722.91
2023-02-12T09:48:04.497Z,99716.06
2023-02-12T09:50:05.938Z,99727.97
2023-02-12T09:52:07.239Z,99724.53
2023-02-12T09:54:08.575Z,99734.75
2023-02-12T09:56:10.692Z,99734.72
2023-02-12T09:58:11.985Z,99733.88
2023-02-12T10:00:13.295Z,99737.28
2023-02-12T10:02:14.628Z,99742.34
2023-02-12T10:04:15.956Z,99739.22
2023-02-12T10:06:17.355Z,99748.16
2023-02-12T10:08:22.144Z,99741.56
2023-02-12T10:10:25.284Z,99740.53
2023-02-12T10:12:26.635Z,99739.44
2023-02-12T10:14:27.937Z,99739.50
2023-02-12T10:16:29.229Z,99738.94
2023-02-12T10:18:30.573Z,99728.06
2023-02-12T10:20:32.088Z,99741.81
2023-02-12T10:22:33.402Z,99745.19
2023-02-12T10:24:34.705Z,99744.28
2023-02-12T10:26:36.029Z,99747.66
2023-02-12T10:28:38.803Z,99743.41
2023-02-12T10:30:40.231Z,99749.38
2023-02-12T10:32:41.541Z,99743.41
2023-02-12T10:34:42.952Z,99740.00
2023-02-12T10:36:44.283Z,99737.44
2023-02-12T10:38:47.111Z,99729.78
2023-02-12T10:40:50.334Z,99739.09
2023-02-12T10:42:51.731Z,99739.94
2023-02-12T10:44:55.799Z,99749.25
2023-02-12T10:46:57.180Z,99749.22
2023-02-12T10:48:58.904Z,99747.47
2023-02-12T10:51:00.354Z,99743.19
2023-02-12T10:53:06.115Z,99738.97
2023-02-12T10:55:09.046Z,99739.81
2023-02-12T10:57:13.086Z,99737.28
2023-02-12T10:59:14.424Z,99726.22
2023-02-12T11:01:15.788Z,99734.72
2023-02-12T11:03:17.087Z,99732.22
2023-02-12T11:05:18.473Z,99733.88
2023-02-12T11:07:19.890Z,99734.75
2023-02-12T11:09:21.192Z,99721.16
2023-02-12T11:11:22.519Z,99722.00
2023-02-12T11:13:23.819Z,99725.47
2023-02-12T11:15:25.143Z,99728.00
2023-02-12T11:17:26.499Z,99722.84
2023-02-12T11:19:27.843Z,99726.28
2023-02-12T11:21:29.188Z,99727.16
2023-02-12T11:23:30.596Z,99731.41
2023-02-12T11:25:31.950Z,99727.09
2023-02-12T11:27:33.347Z,99725.44
2023-02-12T11:29:34.687Z,99726.28
2023-02-12T11:31:37.011Z,99727.16
2023-02-12T11:33:38.969Z,99731.41
2023-02-12T11:35:40.274Z,99729.66
2023-02-12T11:37:41.605Z,99724.56
2023-02-12T11:39:42.904Z,99723.72
2023-02-12T11:41:44.216Z,99733.94
2023-02-12T11:43:45.548Z,99734.78
2023-02-12T11:45:48.024Z,99734.88
2023-02-12T11:47:49.399Z,99729.78
2023-02-12T11:49:50.857Z,99727.19
2023-02-12T11:51:52.228Z,99717.72
2023-02-12T11:53:53.523Z,99719.41
2023-02-12T11:55:54.861Z,99726.22
2023-02-12T11:57:56.147Z,99714.41
2023-02-12T11:59:57.491Z,99712.63
2023-02-12T12:01:58.947Z,99711.81
2023-02-12T12:04:00.268Z,99712.72
2023-02-12T12:06:02.217Z,99712.69
2023-02-12T12:08:03.543Z,99711.81
2023-02-12T12:10:04.877Z,99704.97
2023-02-12T12:12:06.260Z,99707.50
2023-02-12T12:14:07.566Z,99706.63
2023-02-12T12:16:27.756Z,99710.03
2023-02-12T12:18:48.024Z,99711.72
2023-02-12T12:20:49.340Z,99708.31
2023-02-12T12:22:53.566Z,99713.41
2023-02-12T12:24:54.978Z,99709.13
2023-02-12T12:27:00.625Z,99709.97
2023-02-12T12:29:02.256Z,99715.94
2023-02-12T12:31:03.725Z,99712.53
2023-02-12T12:33:05.061Z,99707.44
2023-02-12T12:35:06.362Z,99701.50
2023-02-12T12:37:07.684Z,99707.72
2023-02-12T12:39:09.398Z,99697.50
2023-02-12T12:41:10.697Z,99705.97
2023-02-12T12:43:12.010Z,99710.22
2023-02-12T12:45:13.306Z,99708.50
2023-02-12T12:47:14.591Z,99705.94
2023-02-12T12:49:15.889Z,99700.81
2023-02-12T12:51:17.180Z,99699.97
2023-02-12T12:53:18.480Z,99688.91
2023-02-12T12:55:19.811Z,99697.44
2023-02-12T12:57:21.452Z,99694.00
2023-02-12T12:59:22.828Z,99693.16
2023-02-12T13:01:27.089Z,99693.16
2023-02-12T13:03:28.685Z,99693.16
2023-02-12T13:05:30.015Z,99691.44
2023-02-12T13:07:34.347Z,99688.84
2023-02-12T13:09:35.685Z,99679.44
2023-02-12T13:11:37.004Z,99683.75
2023-02-12T13:13:38.413Z,99682.00
2023-02-12T13:15:39.985Z,99685.41
2023-02-12T13:17:45.875Z,99682.00
2023-02-12T13:19:47.407Z,99685.41
2023-02-12T13:21:48.717Z,99686.22
2023-02-12T13:23:50.083Z,99685.38
2023-02-12T13:25:51.481Z,99679.41
2023-02-12T13:27:55.522Z,99684.56
2023-02-12T13:29:56.854Z,99688.81
2023-02-12T13:32:01.383Z,99675.13
2023-02-12T13:34:02.838Z,99682.72
2023-02-12T13:36:04.168Z,99680.09
2023-02-12T13:38:05.511Z,99681.75
2023-02-12T13:40:06.874Z,99689.41
2023-02-12T13:42:08.172Z,99685.22
2023-02-12T13:44:09.480Z,99681.78
2023-02-12T13:46:10.832Z,99685.22
2023-02-12T13:48:12.146Z,99677.59
2023-02-12T13:50:13.606Z,99694.63
2023-02-12T13:52:14.966Z,99686.97
2023-02-12T13:54:16.336Z,99687.84
2023-02-12T13:56:17.638Z,99681.88
2023-02-12T13:58:18.989Z,99695.53
2023-02-12T14:00:20.344Z,99686.19
2023-02-12T14:02:21.772Z,99693.00
2023-02-12T14:04:23.283Z,99693.88
2023-02-12T14:06:25.205Z,99700.69
2023-02-12T14:08:26.542Z,99693.88
2023-02-12T14:10:27.953Z,99692.22
2023-02-12T14:12:29.455Z,99699.06
2023-02-12T14:14:30.808Z,99697.34
2023-02-12T14:16:32.163Z,99703.31
2023-02-12T14:18:36.492Z,99701.59
2023-02-12T14:20:38.079Z,99699.06
2023-02-12T14:22:39.386Z,99703.31
2023-02-12T14:24:40.731Z,99705.88
2023-02-12T14:26:42.021Z,99703.31
2023-02-12T14:28:43.395Z,99699.06
2023-02-12T14:30:44.710Z,99701.63
2023-02-12T14:32:46.034Z,99705.00
2023-02-12T14:34:47.612Z,99706.66
2023-02-12T14:36:49.259Z,99703.25
2023-02-12T14:38:50.579Z,99705.84
2023-02-12T14:40:52.609Z,99708.38
2023-02-12T14:42:53.923Z,99704.09
2023-02-12T14:44:55.993Z,99702.38
2023-02-12T14:46:57.438Z,99698.06
2023-02-12T14:49:04.971Z,99709.09
2023-02-12T14:51:06.330Z,99711.59
2023-02-12T14:53:07.621Z,99710.69
2023-02-12T14:55:08.986Z,99708.94
2023-02-12T14:57:10.330Z,99712.34
2023-02-12T14:59:14.292Z,99710.59
2023-02-12T15:01:18.347Z,99715.69
2023-02-12T15:03:19.919Z,99711.44
2023-02-12T15:05:21.259Z,99711.44
2023-02-12T15:07:22.653Z,99703.81
2023-02-12T15:09:23.944Z,99708.09
2023-02-12T15:11:25.288Z,99709.81
2023-02-12T15:13:26.864Z,99701.31
2023-02-12T15:15:31.377Z,99698.78
2023-02-12T15:17:32.724Z,99697.09
2023-02-12T15:19:34.228Z,99703.09
2023-02-12T15:21:35.534Z,99701.41
2023-02-12T15:23:36.979Z,99706.53
2023-02-12T15:25:38.267Z,99708.25
2023-02-12T15:27:39.565Z,99712.53
2023-02-12T15:29:40.874Z,99711.69
2023-02-12T15:31:42.235Z,99708.28
2023-02-12T15:33:43.597Z,99709.16
2023-02-12T15:35:45.009Z,99712.53
2023-02-12T15:37:46.314Z,99706.59
2023-02-12T15:39:48.068Z,99704.06
2023-02-12T15:41:49.445Z,99698.97
2023-02-12T15:43:50.743Z,99704.94
2023-02-12T15:45:52.057Z,99704.09
2023-02-12T15:47:53.352Z,99703.25
2023-02-12T15:49:54.683Z,99708.38
2023-02-12T15:51:55.995Z,99712.59
2023-02-12T15:53:57.489Z,99708.38
2023-02-12T15:56:01.706Z,99714.31
2023-02-12T15:58:03.080Z,99709.22
2023-02-12T16:00:07.228Z,99711.78
2023-02-12T16:02:08.527Z,99704.97
2023-02-12T16:04:09.981Z,99706.66
2023-02-12T16:06:13.617Z,99710.06
2023-02-12T16:08:14.933Z,99711.75
2023-02-12T16:10:16.259Z,99715.16
2023-02-12T16:12:18.372Z,99710.06
2023-02-12T16:14:20.052Z,99706.66
2023-02-12T16:16:21.408Z,99704.09
2023-02-12T16:18:23.308Z,99702.41
2023-02-12T16:20:25.603Z,99707.50
2023-02-12T16:22:29.916Z,99715.16
2023-02-12T16:24:31.384Z,99716.84
2023-02-12T16:26:32.684Z,99723.63
2023-02-12T16:28:34.161Z,99729.59
2023-02-12T16:30:38.719Z,99722.75
2023-02-12T16:32:40.045Z,99726.13
2023-02-12T16:34:41.348Z,99721.88
2023-02-12T16:36:42.635Z,99732.97
2023-02-12T16:38:44.023Z,99730.38
2023-02-12T16:40:45.456Z,99732.06
2023-02-12T16:42:46.790Z,99735.47
2023-02-12T16:44:48.091Z,99737.16
2023-02-12T16:46:52.620Z,99740.56
2023-02-12T16:48:53.950Z,99737.16
2023-02-12T16:50:55.384Z,99734.59
2023-02-12T16:53:05.571Z,99737.16
2023-02-12T16:55:07.825Z,99743.13
2023-02-12T16:57:09.860Z,99739.69
2023-02-12T16:59:14.272Z,99737.97
2023-02-12T17:01:18.568Z,99745.66
2023-02-12T17:03:19.942Z,99750.72
2023-02-12T17:05:23.072Z,99752.41
2023-02-12T17:07:24.434Z,99753.19
2023-02-12T17:09:25.772Z,99746.34
2023-02-12T17:11:28.046Z,99743.72
2023-02-12T17:13:29.470Z,99750.47
2023-02-12T17:15:30.810Z,99748.66
2023-02-12T17:17:32.119Z,99749.47
2023-02-12T17:19:33.408Z,99749.44
2023-02-12T17:21:38.274Z,99775.00
2023-02-12T17:23:41.205Z,99753.75
2023-02-12T17:25:42.662Z,99768.25
2023-02-12T17:27:43.989Z,99764.94
2023-02-12T17:29:45.339Z,99770.94
2023-02-12T17:31:49.554Z,99759.94
2023-02-12T17:33:50.923Z,99765.97
2023-02-12T17:35:52.234Z,99771.97
2023-02-12T17:37:53.524Z,99772.81
2023-02-12T17:39:56.235Z,99775.44
2023-02-12T17:42:00.049Z,99778.84
2023-02-12T17:44:01.400Z,99777.97
2023-02-12T17:46:02.841Z,99778.03
2023-02-12T17:48:04.188Z,99770.41
2023-02-12T17:50:05.880Z,99780.63
2023-02-12T17:52:07.580Z,99778.06
2023-02-12T17:54:08.993Z,99780.63
2023-02-12T17:56:10.298Z,99776.41
2023-02-12T17:58:11.628Z,99775.53
2023-02-12T18:00:13.086Z,99781.53
2023-02-12T18:02:14.380Z,99778.94
2023-02-12T18:04:15.890Z,99784.09
2023-02-12T18:06:17.217Z,99783.31
2023-02-12T18:08:18.555Z,99776.69
2023-02-12T18:10:19.851Z,99787.91
2023-02-12T18:12:21.207Z,99790.53
2023-02-12T18:14:22.507Z,99787.97
2023-02-12T18:16:23.835Z,99785.41
2023-02-12T18:18:25.205Z,99790.56
2023-02-12T18:20:26.645Z,99788.84
2023-02-12T18:22:27.995Z,99787.13
2023-02-12T18:24:31.643Z,99789.72
2023-02-12T18:26:32.989Z,99790.56
2023-02-12T18:28:34.349Z,99794.81
2023-02-12T18:30:36.676Z,99782.84
2023-02-12T18:32:38.040Z,99801.69
2023-02-12T18:34:39.401Z,99800.81
2023-02-12T18:36:43.357Z,99797.41
2023-02-12T18:38:50.324Z,99793.09
2023-02-12T18:40:51.625Z,99791.34
2023-02-12T18:42:52.935Z,99790.56
2023-02-12T18:44:54.241Z,99793.13
2023-02-12T18:46:57.375Z,99793.13
2023-02-12T18:48:58.723Z,99793.13
2023-02-12T18:51:00.043Z,99792.25
2023-02-12T18:53:01.355Z,99789.69
2023-02-12T18:55:02.689Z,99790.56
2023-02-12T18:57:03.995Z,99781.19
2023-02-12T18:59:08.222Z,99782.81
2023-02-12T19:01:09.700Z,99772.44
2023-02-12T19:03:11.002Z,99777.69
2023-02-12T19:05:12.320Z,99776.03
2023-02-12T19:07:13.663Z,99770.91
2023-02-12T19:09:16.603Z,99773.47
2023-02-12T19:11:20.788Z,99765.81
2023-02-12T19:13:22.106Z,99770.91
2023-02-12T19:15:35.695Z,99777.75
2023-02-12T19:17:39.993Z,99768.38
2023-02-12T19:19:41.331Z,99766.66
2023-02-12T19:21:45.296Z,99768.38
2023-02-12T19:23:46.631Z,99766.66
2023-02-12T19:25:47.936Z,99768.34
2023-02-12T19:27:49.255Z,99761.47
2023-02-12T19:29:50.615Z,99772.63
2023-02-12T19:31:52.084Z,99773.47
2023-02-12T19:33:53.452Z,99775.22
2023-02-12T19:35:57.784Z,99769.22
2023-02-12T19:37:59.089Z,99771.78
2023-02-12T19:40:00.431Z,99768.38
2023-02-12T19:42:01.741Z,99766.66
2023-02-12T19:44:03.088Z,99753.84
2023-02-12T19:46:04.444Z,99755.53
2023-02-12T19:48:09.029Z,99764.94
2023-02-12T19:50:13.208Z,99758.94
2023-02-12T19:52:14.532Z,99765.81
2023-02-12T19:54:15.875Z,99752.16
2023-02-12T19:56:17.216Z,99754.69
2023-02-12T19:58:18.527Z,99745.31
2023-02-12T20:00:19.851Z,99753.00
2023-02-12T20:02:21.242Z,99750.44
2023-02-12T20:04:22.679Z,99747.88
2023-02-12T20:06:23.983Z,99749.59
2023-02-12T20:08:25.283Z,99737.63
2023-02-12T20:10:26.649Z,99736.78
2023-02-12T20:12:30.633Z,99736.78
2023-02-12T20:14:31.980Z,99737.63
2023-02-12T20:16:37.995Z,99747.88
2023-02-12T20:18:39.605Z,99741.03
2023-02-12T20:20:40.979Z,99753.00
2023-02-12T20:22:42.303Z,99743.63
2023-02-12T20:24:43.628Z,99753.00
2023-02-12T20:26:44.949Z,99741.88
2023-02-12T20:28:46.562Z,99753.84
2023-02-12T20:30:48.882Z,99752.16
2023-02-12T20:32:50.419Z,99762.38
2023-02-12T20:34:51.747Z,99758.13
2023-02-12T20:36:54.197Z,99763.25
2023-02-12T20:38:58.464Z,99753.84
2023-02-12T20:40:59.759Z,99749.56
2023-02-12T20:43:01.057Z,99764.94
2023-02-12T20:45:02.400Z,99764.94
2023-02-12T20:47:03.695Z,99767.50
2023-02-12T20:49:05.051Z,99764.94
2023-02-12T20:51:06.414Z,99759.00
2023-02-12T20:53:07.943Z,99762.41
2023-02-12T20:55:09.242Z,99764.09
2023-02-12T20:57:10.566Z,99759.84
2023-02-12T20:59:12.457Z,99752.97
2023-02-12T21:01:16.745Z,99766.63
2023-02-12T21:03:18.064Z,99758.97
2023-02-12T21:05:19.516Z,99765.78
2023-02-12T21:07:20.868Z,99757.28
2023-02-12T21:09:22.250Z,99761.53
2023-02-12T21:11:23.553Z,99758.97
2023-02-12T21:13:25.427Z,99761.53
2023-02-12T21:15:26.787Z,99759.72
2023-02-12T21:17:34.829Z,99758.84
2023-02-12T21:19:36.962Z,99763.94
2023-02-12T21:21:38.349Z,99760.53
2023-02-12T21:23:39.651Z,99768.16
2023-02-12T21:25:40.965Z,99768.16
2023-02-12T21:27:45.073Z,99772.44
2023-02-12T21:29:46.379Z,99775.88
2023-02-12T21:31:47.822Z,99766.50
2023-02-12T21:33:49.215Z,99772.47
2023-02-12T21:35:50.519Z,99771.69
2023-02-12T21:37:51.812Z,99776.06
2023-02-12T21:39:53.120Z,99768.38
2023-02-12T21:41:54.454Z,99768.34
2023-02-12T21:43:55.761Z,99773.44
2023-02-12T21:45:57.054Z,99766.59
2023-02-12T21:47:58.364Z,99764.94
2023-02-12T21:49:59.655Z,99769.25
2023-02-12T21:52:02.233Z,99769.22
2023-02-12T21:54:03.799Z,99760.66
2023-02-12T21:56:05.163Z,99765.81
2023-02-12T21:58:06.465Z,99756.44
2023-02-12T22:00:07.750Z,99766.66
2023-02-12T22:02:09.109Z,99617.38
2023-02-12T22:04:10.602Z,99758.94
2023-02-12T22:06:11.935Z,99751.25
2023-02-12T22:08:14.729Z,99765.63
2023-02-12T22:10:16.044Z,99764.06
2023-02-12T22:12:17.445Z,99767.50
2023-02-12T22:14:18.783Z,99764.94
2023-02-12T22:16:20.186Z,99771.78
2023-02-12T22:18:21.528Z,99765.81
2023-02-12T22:20:22.864Z,99761.53
2023-02-12T22:22:24.168Z,99762.38
2023-02-12T22:24:25.473Z,99760.63
2023-02-12T22:26:26.780Z,99770.91
2023-02-12T22:28:28.104Z,99771.78
2023-02-12T22:30:29.432Z,99770.09
2023-02-12T22:32:30.861Z,99767.50
2023-02-12T22:34:32.294Z,99765.78
2023-02-12T22:36:33.564Z,99763.25
2023-02-12T22:38:34.863Z,99770.91
2023-02-12T22:40:36.179Z,99763.25
2023-02-12T22:42:37.470Z,99755.56
2023-02-12T22:44:38.759Z,99757.25
2023-02-12T22:46:40.182Z,99767.50
2023-02-12T22:48:41.528Z,99759.00
2023-02-12T22:50:42.853Z,99762.41
2023-02-12T22:52:44.146Z,99759.81
2023-02-12T22:54:45.461Z,99765.78
2023-02-12T22:56:46.867Z,99759.81
2023-02-12T22:58:48.190Z,99764.09
2023-02-12T23:00:49.533Z,99762.38
2023-02-12T23:02:50.880Z,99764.09
2023-02-12T23:04:52.222Z,99756.41
2023-02-12T23:06:53.556Z,99758.06
2023-02-12T23:08:54.884Z,99761.50
2023-02-12T23:10:56.458Z,99760.69
2023-02-12T23:12:57.872Z,99750.44
2023-02-12T23:14:59.218Z,99756.41
2023-02-12T23:17:00.572Z,99758.13
2023-02-12T23:19:01.970Z,99762.41
2023-02-12T23:21:03.274Z,99759.84
2023-02-12T23:23:04.588Z,99751.16
2023-02-12T23:25:05.888Z,99744.31
2023-02-12T23:27:07.190Z,99751.13
2023-02-12T23:29:08.638Z,99752.00
2023-02-12T23:31:10.041Z,99752.03
2023-02-12T23:33:11.454Z,99750.41
2023-02-12T23:35:12.752Z,99741.88
2023-02-12T23:37:14.046Z,99748.72
2023-02-12T23:39:15.399Z,99744.41
2023-02-12T23:41:16.741Z,99744.44
2023-02-12T23:43:18.044Z,99748.72
2023-02-12T23:45:19.346Z,99747.88
2023-02-12T23:47:20.650Z,99741.03
2023-02-12T23:49:21.952Z,99741.88